• Join FlightAware (Why Join?)
  • Login
  • US Flag 
10:31PM EDT


 

Airport Tracker/Info


-or-


 

Live Flight TrackerFlight Track Log ✈ SKW4664 ✈ 18-Jul-2013 ✈ KMSP - KFSD

Flight Track Log - Related Links

Times and Time Zones

All times are in EDT time to prevent confusion due to time zone crossing. See the SKW4664 flight status page for this flight to view local times or setup timezone preferences in your user account.

Time Position Orientation Groundspeed Altitude Reporting Facility
EDT Latitude Longitude Course Direction KTS MPH feet Rate Location/Type
10:37AM 44.8333 -93.2333 235° Southwest 163 188 2,200  Level Minneapolis TRACON
10:38AM 44.8161 -93.2481 211° Southwest 182 209 3,300 1,440 Climbing Minneapolis Center
10:39AM 44.7858 -93.3086 235° Southwest 206 237 4,600 1,560 Climbing Minneapolis Center
10:40AM 44.7002 -93.5997 232° Southwest  Level FlightAware Approximate
10:40AM 44.7542 -93.3933 242° Southwest 248 285 6,600  Level Minneapolis Center
10:41AM 44.6352 -93.7297 235° Southwest  Level FlightAware Approximate
10:41AM 44.7203 -93.4833 242° Southwest 260 299 8,900  Level Minneapolis Center
10:42AM 44.5652 -93.8525 230° Southwest  Level FlightAware Approximate
10:42AM 44.6778 -93.5939 242° Southwest 273 314 10,800  Level Minneapolis Center
10:43AM 44.4951 -93.9766 235° Southwest  Level FlightAware Approximate
10:43AM 44.6406 -93.6989 244° Southwest 299 344 12,700  Level Minneapolis Center
10:44AM 44.6050 -93.8064 245° Southwest 308 354 13,900 1,200 Climbing Minneapolis Center
10:45AM 44.5675 -93.9194 245° Southwest 322 371 15,200 1,200 Climbing Minneapolis Center
10:46AM 44.5294 -94.0344 245° Southwest 326 375 16,400 840 Climbing Minneapolis Center
10:47AM 44.4886 -94.1544 245° Southwest 343 395 17,000 600 Climbing Minneapolis Center
10:48AM 44.4389 -94.3058 245° Southwest 358 412 17,700 720 Climbing Minneapolis Center
10:49AM 44.3972 -94.4336 246° West 360 414 18,500 600 Climbing Minneapolis Center
10:50AM 44.3536 -94.5636 245° Southwest 369 425 19,000 480 Climbing Minneapolis Center
10:51AM 44.3022 -94.7125 244° Southwest 378 435 19,500 480 Climbing Minneapolis Center
10:52AM 44.2558 -94.8456 244° Southwest 383 441 20,000 480 Climbing Minneapolis Center
10:53AM 44.2092 -94.9800 244° Southwest 385 443 20,500 480 Climbing Minneapolis Center
10:54AM 44.1628 -95.1142 244° Southwest 385 443 21,000 480 Climbing Minneapolis Center
10:55AM 44.1167 -95.2500 245° Southwest 387 445 21,600 480 Climbing Minneapolis Center
10:56AM 44.0683 -95.3856 244° Southwest 390 449 22,000 180 Climbing Minneapolis Center
10:57AM 44.0233 -95.5161 244° Southwest 380 437 22,000  Level Minneapolis Center
10:58AM 43.9697 -95.6672 244° Southwest 367 422 22,000 -720 Level Minneapolis Center
11:00AM 43.9258 -95.7903 244° Southwest 357 411 20,600 -1,920 Descending Minneapolis Center
11:01AM 43.8811 -95.9164 244° Southwest 360 414 18,000 -3,060 Descending Minneapolis Center
11:02AM 43.8364 -96.0422 244° Southwest 361 415 14,300 -3,840 Descending Minneapolis Center
11:03AM 43.7922 -96.1633 243° Southwest 355 409 10,100 -3,000 Descending Minneapolis Center
11:04AM 43.7594 -96.2564 244° Southwest 302 348 8,200 -1,860 Descending Minneapolis Center
11:05AM 43.7281 -96.3453 244° Southwest 272 313 6,300 -1,920 Descending Minneapolis Center
11:06AM 43.7253 -96.4628 268° West 260 299 4,300 -1,560 Descending Minneapolis Center
11:07AM 43.7144 -96.5533 261° West 250 288 3,100 -660 Descending Minneapolis Center
11:08AM 43.6811 -96.6228 236° Southwest 231 266 3,000 -60 Descending Minneapolis Center
11:09AM 43.6558 -96.6761 237° Southwest 198 228 3,000  Level Minneapolis Center